Airfield :
LOGIN :

Register | Disclaimer

   EN    FR    IT 

 










Legend :    VFR   Marginal VFR   IFR   Intensive IFR   Very Intensive IFR
Visi :
Ceiling :
>= 8 km
>= 3000ft
5 to 8 km
1000 to 3000 ft
1500m to 5 km
500 to 1000 ft
800 to 1500m
200 to 500 ft
< 800m
< 200 ft
Symbols :   Thunderstorms  Fog  Heavy snow  Heavy precipitations  Wind > 20 kt
SIGMETs :     Misc.  Thunderstorms  Icing  Turbulence  Mountain Waves  Volcanic Ashes






- Airport Elevation : 284 ft


EGUW - RAF Wattisham

CURRENT METAR :
  • 300940Z 21008KT 0800 FG OVC001 10/10 Q1007 BECMG 9999 FEW004 RMK AMB BECMG BLU

EXPIRED METARs :
  • 300850Z 22007KT 0200 FG OVC001 09/09 Q1007 BECMG 9999 FEW040 RMK RED BECMG BLU
  • 300750Z 23008KT 0100 FG OVC000 07/07 Q1008 BECMG 9999 FEW004 RMK RED BECMG BLU
  • 300650Z 23006KT 0100 FG OVC000 06/06 Q1008 BECMG 9999 FEW004 RMK RED BECMG BLU

TAF TAF EGUW
Valid from the 30 at 09:00 until the 30 at 18:00 UTC


300743Z 3009/3018 24007KT 0200 FG VV///
BECMG 3009/3011 9999 FEW012 SCT030
TEMPO 3013/3014 21015G25KT
BECMG 3014/3016 20022G32KT
PROB40
TEMPO 3016/3018 3000 +RA SCT010



MET'MAP, your aeronautical weather chart ! - Copyright ORBIFLY December 2007 - Disclaimer

ORBIFLY MET'MAP TEAM :

Programming & Development : Alexandra Zaïnal
Original concept : Baudouin d'Aumeries
Technical & hardware support : Manuel Goepfert
Assistance : Marc-Olivier Méhu




SOURCES & CREDITS :

   NOAA